Terminal Aerodrome Forecast
Issued by NWS

Home | Current Version | Previous Version | Text Only | Print | Product List | Glossary On
Versions: 1 2 3 4 5 6 7 8 9 10 11 12 13 14 15 16 17 18 19 20 21
000
FTUS41 KILN 281700
TAFLCK
TAF
KLCK 281733Z 2818/2918 10005KT P6SM BKN050
     FM282300 12003KT P6SM SKC
     FM290700 12003KT P6SM SCT080 BKN150
     FM291500 18007KT P6SM SCT040 BKN150=

USA.gov is the U.S. government's official web portal to all federal, state and local government web resources and services.